createdAt,value
2023-03-26T00:10:37.199Z,6.70
2023-03-26T00:24:37.233Z,6.10
2023-03-26T00:38:37.243Z,5.70
2023-03-26T00:52:37.254Z,5.40
2023-03-26T01:06:37.241Z,5.50
2023-03-26T01:20:37.284Z,5.10
2023-03-26T01:34:37.308Z,4.50
2023-03-26T01:48:37.318Z,4.00
2023-03-26T02:02:37.489Z,3.50
2023-03-26T02:16:37.390Z,3.50
2023-03-26T02:30:37.350Z,3.40
2023-03-26T02:44:37.339Z,3.35
2023-03-26T02:58:37.355Z,3.00
2023-03-26T03:12:37.393Z,2.95
2023-03-26T03:26:37.394Z,2.70
2023-03-26T03:40:37.406Z,2.40
2023-03-26T03:54:37.422Z,2.40
2023-03-26T04:08:37.434Z,2.50
2023-03-26T04:22:37.475Z,2.00
2023-03-26T04:36:37.444Z,2.10
2023-03-26T04:50:37.484Z,1.90
2023-03-26T05:05:37.477Z,1.80
2023-03-26T05:20:37.510Z,1.95
2023-03-26T05:35:37.573Z,2.00
2023-03-26T05:50:37.514Z,2.90
2023-03-26T06:05:37.578Z,2.60
2023-03-26T06:20:37.569Z,2.80
2023-03-26T06:35:37.654Z,4.50
2023-03-26T06:50:37.600Z,2.80
2023-03-26T07:05:37.616Z,3.40
2023-03-26T07:20:37.639Z,2.45
2023-03-26T07:35:37.703Z,2.40
2023-03-26T07:50:37.647Z,3.00
2023-03-26T08:05:37.692Z,3.10
2023-03-26T08:20:37.682Z,4.10
2023-03-26T08:35:37.767Z,2.00
2023-03-26T08:50:37.762Z,3.20
2023-03-26T09:05:37.801Z,14.80
2023-03-26T09:20:37.778Z,17.80
2023-03-26T09:35:37.826Z,13.30
2023-03-26T09:50:37.823Z,11.80
2023-03-26T10:05:37.830Z,11.70
2023-03-26T10:20:37.868Z,12.20
2023-03-26T10:35:37.916Z,13.00
2023-03-26T10:51:37.898Z,18.70
2023-03-26T11:06:37.949Z,13.80
2023-03-26T11:22:37.942Z,12.40
2023-03-26T11:37:37.979Z,8.20
2023-03-26T11:52:37.988Z,6.30
2023-03-26T12:07:37.978Z,6.40
2023-03-26T12:22:37.991Z,6.90
2023-03-26T12:37:38.009Z,5.60
2023-03-26T12:52:38.024Z,4.90
2023-03-26T13:07:38.003Z,3.80
2023-03-26T13:22:38.027Z,4.20
2023-03-26T13:37:38.562Z,2.80
2023-03-26T13:52:38.067Z,5.00
2023-03-26T14:08:38.128Z,6.05
2023-03-26T14:23:38.142Z,4.10
2023-03-26T14:38:38.124Z,5.10
2023-03-26T14:53:38.146Z,5.20
2023-03-26T15:08:38.223Z,6.70
2023-03-26T15:23:38.144Z,7.00
2023-03-26T15:38:38.161Z,10.40
2023-03-26T15:53:38.125Z,9.60
2023-03-26T16:09:38.142Z,14.10
2023-03-26T16:24:38.143Z,26.20
2023-03-26T16:39:38.154Z,17.30
2023-03-26T16:54:38.216Z,42.40
2023-03-26T17:09:38.179Z,55.40
2023-03-26T17:24:38.197Z,53.10
2023-03-26T17:39:38.208Z,49.40
2023-03-26T17:53:38.192Z,47.65
2023-03-26T18:07:38.200Z,43.35
2023-03-26T18:21:38.202Z,42.30
2023-03-26T18:35:38.271Z,39.60
2023-03-26T18:49:38.257Z,38.50
2023-03-26T19:03:38.328Z,36.20
2023-03-26T19:17:38.361Z,33.80
2023-03-26T19:31:38.315Z,31.70
2023-03-26T19:45:38.269Z,30.00
2023-03-26T19:59:38.262Z,28.30
2023-03-26T20:13:38.369Z,26.00
2023-03-26T20:27:38.319Z,24.15
2023-03-26T20:41:38.312Z,22.80
2023-03-26T20:55:38.309Z,21.10
2023-03-26T21:09:38.295Z,19.25
2023-03-26T21:23:39.163Z,18.30
2023-03-26T21:37:38.322Z,16.40
2023-03-26T21:51:38.305Z,14.90
2023-03-26T22:05:38.337Z,13.50
2023-03-26T22:19:38.343Z,12.40
2023-03-26T22:33:38.372Z,11.60
2023-03-26T22:47:38.390Z,10.90
2023-03-26T23:01:38.389Z,10.20
2023-03-26T23:15:38.352Z,9.60
2023-03-26T23:29:38.361Z,9.40
2023-03-26T23:43:38.469Z,8.30
2023-03-26T23:57:38.382Z,7.60
